createdAt,value
2023-05-09T00:02:08.210Z,34.63
2023-05-09T00:04:37.480Z,34.05
2023-05-09T00:07:05.957Z,36.13
2023-05-09T00:09:33.802Z,33.65
2023-05-09T00:12:02.703Z,34.67
2023-05-09T00:14:30.583Z,35.00
2023-05-09T00:16:59.341Z,35.03
2023-05-09T00:19:27.392Z,35.15
2023-05-09T00:21:56.784Z,35.28
2023-05-09T00:24:24.676Z,35.25
2023-05-09T00:26:52.950Z,34.08
2023-05-09T00:29:20.863Z,35.83
2023-05-09T00:31:48.862Z,35.58
2023-05-09T00:34:16.985Z,35.63
2023-05-09T00:36:44.849Z,35.45
2023-05-09T00:39:14.310Z,34.47
2023-05-09T00:41:42.485Z,33.17
2023-05-09T00:44:10.237Z,34.72
2023-05-09T00:46:38.188Z,33.10
2023-05-09T00:49:06.292Z,34.03
2023-05-09T00:51:34.378Z,34.90
2023-05-09T00:54:02.306Z,36.08
2023-05-09T00:56:34.842Z,33.17
2023-05-09T00:59:02.932Z,35.17
2023-05-09T01:01:30.910Z,34.20
2023-05-09T01:03:59.388Z,35.17
2023-05-09T01:06:33.077Z,33.75
2023-05-09T01:09:04.926Z,37.67
2023-05-09T01:11:39.982Z,36.28
2023-05-09T01:14:14.987Z,37.38
2023-05-09T01:16:48.768Z,37.17
2023-05-09T01:19:41.053Z,36.42
2023-05-09T01:22:10.415Z,36.95
2023-05-09T01:25:00.491Z,36.65
2023-05-09T01:27:44.673Z,39.50
2023-05-09T01:30:14.669Z,38.70
2023-05-09T01:32:44.789Z,37.20
2023-05-09T01:35:14.882Z,38.53
2023-05-09T01:37:44.485Z,37.00
2023-05-09T01:40:16.781Z,37.85
2023-05-09T01:42:45.999Z,38.80
2023-05-09T01:45:17.629Z,39.88
2023-05-09T01:47:46.286Z,39.10
2023-05-09T01:50:14.632Z,36.83
2023-05-09T01:52:46.178Z,39.75
2023-05-09T01:55:14.824Z,38.85
2023-05-09T01:57:43.353Z,40.17
2023-05-09T02:00:13.868Z,38.88
2023-05-09T02:02:44.546Z,39.47
2023-05-09T02:05:13.469Z,39.08
2023-05-09T02:07:42.366Z,39.63
2023-05-09T02:10:11.683Z,39.88
2023-05-09T02:12:39.715Z,38.40
2023-05-09T02:15:09.450Z,42.30
2023-05-09T02:17:42.357Z,41.92
2023-05-09T02:20:13.511Z,43.17
2023-05-09T02:22:42.614Z,43.75
2023-05-09T02:25:14.384Z,44.97
2023-05-09T02:27:44.305Z,42.75
2023-05-09T02:30:16.239Z,43.70
2023-05-09T02:32:45.604Z,44.28
2023-05-09T02:35:16.591Z,44.83
2023-05-09T02:37:45.344Z,44.97
2023-05-09T02:40:13.892Z,45.78
2023-05-09T02:42:41.950Z,45.08
2023-05-09T02:45:11.853Z,42.60
2023-05-09T02:47:40.077Z,43.45
2023-05-09T02:50:09.192Z,43.10
2023-05-09T02:52:41.062Z,45.15
2023-05-09T02:55:10.194Z,43.28
2023-05-09T02:57:41.073Z,43.95
2023-05-09T03:00:10.492Z,42.90
2023-05-09T03:02:39.144Z,41.13
2023-05-09T03:05:11.002Z,39.72
2023-05-09T03:07:40.326Z,38.17
2023-05-09T03:10:11.462Z,38.55
2023-05-09T03:12:39.741Z,36.72
2023-05-09T03:15:08.947Z,37.40
2023-05-09T03:17:42.233Z,33.97
2023-05-09T03:20:11.153Z,34.10
2023-05-09T03:22:40.640Z,32.65
2023-05-09T03:25:11.143Z,31.45
2023-05-09T03:27:40.008Z,29.33
2023-05-09T03:30:13.041Z,30.73
2023-05-09T03:32:42.772Z,28.27
2023-05-09T03:35:11.280Z,29.15
2023-05-09T03:37:40.632Z,27.48
2023-05-09T03:40:10.501Z,28.60
2023-05-09T03:42:46.541Z,27.83
2023-05-09T03:45:14.986Z,28.25
2023-05-09T03:47:44.035Z,26.80
2023-05-09T03:50:12.704Z,27.33
2023-05-09T03:52:42.309Z,26.30
2023-05-09T03:55:11.045Z,27.73
2023-05-09T03:57:39.520Z,27.02
2023-05-09T04:00:10.363Z,27.25
2023-05-09T04:02:56.161Z,27.63
2023-05-09T04:05:33.644Z,26.92
2023-05-09T04:08:11.058Z,27.75
2023-05-09T04:10:39.112Z,27.77
2023-05-09T04:13:07.346Z,27.05
2023-05-09T04:15:36.512Z,27.27
2023-05-09T04:18:05.266Z,28.50
2023-05-09T04:20:33.615Z,29.00
2023-05-09T04:23:03.544Z,28.83
2023-05-09T04:25:31.830Z,28.35
2023-05-09T04:27:59.955Z,30.27
2023-05-09T04:30:28.451Z,28.38
2023-05-09T04:32:57.005Z,27.90
2023-05-09T04:35:26.746Z,27.45
2023-05-09T04:37:55.266Z,27.77
2023-05-09T04:40:26.891Z,27.05
2023-05-09T04:42:59.810Z,25.75
2023-05-09T04:45:30.890Z,26.38
2023-05-09T04:48:00.830Z,26.42
2023-05-09T04:50:30.442Z,27.42
2023-05-09T04:52:59.740Z,26.52
2023-05-09T04:55:29.804Z,27.27
2023-05-09T04:57:58.493Z,26.48
2023-05-09T05:00:26.485Z,28.88
2023-05-09T05:02:54.469Z,26.45
2023-05-09T05:05:25.421Z,26.42
2023-05-09T05:07:56.799Z,25.95
2023-05-09T05:10:31.383Z,27.08
2023-05-09T05:13:07.719Z,24.45
2023-05-09T05:15:39.480Z,26.42
2023-05-09T05:18:08.810Z,25.92
2023-05-09T05:20:36.992Z,25.60
2023-05-09T05:23:05.062Z,24.63
2023-05-09T05:25:34.972Z,24.77
2023-05-09T05:28:03.623Z,23.95
2023-05-09T05:30:34.185Z,25.20
2023-05-09T05:33:04.007Z,25.90
2023-05-09T05:35:32.686Z,24.73
2023-05-09T05:38:03.718Z,24.85
2023-05-09T05:40:33.409Z,24.90
2023-05-09T05:43:05.911Z,23.77
2023-05-09T05:45:36.348Z,23.85
2023-05-09T05:48:07.207Z,24.65
2023-05-09T05:50:36.643Z,23.83
2023-05-09T05:53:04.996Z,23.17
2023-05-09T05:55:34.143Z,21.60
2023-05-09T05:58:02.109Z,23.02
2023-05-09T06:00:31.469Z,21.60
2023-05-09T06:03:04.883Z,21.50
2023-05-09T06:05:43.680Z,20.90
2023-05-09T06:08:12.462Z,20.63
2023-05-09T06:10:40.271Z,21.73
2023-05-09T06:13:08.235Z,21.05
2023-05-09T06:15:39.842Z,20.20
2023-05-09T06:18:09.048Z,21.40
2023-05-09T06:20:37.032Z,19.17
2023-05-09T06:23:04.853Z,19.60
2023-05-09T06:25:32.914Z,19.35
2023-05-09T06:28:00.766Z,20.58
2023-05-09T06:30:29.028Z,18.15
2023-05-09T06:33:00.152Z,18.88
2023-05-09T06:35:28.635Z,19.45
2023-05-09T06:37:56.605Z,18.48
2023-05-09T06:40:24.424Z,19.05
2023-05-09T06:42:52.394Z,18.33
2023-05-09T06:45:21.504Z,19.17
2023-05-09T06:47:49.747Z,18.10
2023-05-09T06:50:19.220Z,17.17
2023-05-09T06:52:47.164Z,17.55
2023-05-09T06:55:15.390Z,17.45
2023-05-09T06:57:43.525Z,17.15
2023-05-09T07:00:12.650Z,16.80
2023-05-09T07:02:42.250Z,15.85
2023-05-09T07:05:11.458Z,15.10
2023-05-09T07:07:42.069Z,15.90
2023-05-09T07:10:12.635Z,15.25
2023-05-09T07:12:41.729Z,14.98
2023-05-09T07:15:11.265Z,16.15
2023-05-09T07:17:39.567Z,15.05
2023-05-09T07:20:09.836Z,15.30
2023-05-09T07:22:38.040Z,15.23
2023-05-09T07:25:09.890Z,16.20
2023-05-09T07:27:39.828Z,16.38
2023-05-09T07:30:09.385Z,16.48
2023-05-09T07:32:37.859Z,17.15
2023-05-09T07:35:06.489Z,16.40
2023-05-09T07:37:34.884Z,16.88
2023-05-09T07:40:03.424Z,16.38
2023-05-09T07:42:33.372Z,16.17
2023-05-09T07:45:01.539Z,16.25
2023-05-09T07:47:29.443Z,16.60
2023-05-09T07:49:57.644Z,15.18
2023-05-09T07:52:25.542Z,15.73
2023-05-09T07:54:54.587Z,15.63
2023-05-09T07:57:22.766Z,16.50
2023-05-09T07:59:52.013Z,16.48
2023-05-09T08:02:20.093Z,14.75
2023-05-09T08:04:49.107Z,15.60
2023-05-09T08:07:16.995Z,15.13
2023-05-09T08:09:44.848Z,13.88
2023-05-09T08:12:12.924Z,14.07
2023-05-09T08:14:40.827Z,14.95
2023-05-09T08:17:10.050Z,14.13
2023-05-09T08:19:38.147Z,13.85
2023-05-09T08:22:06.096Z,14.00
2023-05-09T08:24:33.884Z,15.93
2023-05-09T08:27:02.010Z,15.23
2023-05-09T08:29:30.123Z,14.40
2023-05-09T08:31:58.110Z,13.50
2023-05-09T08:34:27.505Z,13.68
2023-05-09T08:36:55.730Z,11.40
2023-05-09T08:39:23.627Z,10.77
2023-05-09T08:41:51.783Z,11.63
2023-05-09T08:44:19.610Z,11.00
2023-05-09T08:46:48.987Z,10.93
2023-05-09T08:49:17.302Z,10.38
2023-05-09T08:51:47.269Z,11.70
2023-05-09T08:54:15.573Z,11.00
2023-05-09T08:56:43.671Z,10.40
2023-05-09T08:59:11.754Z,10.40
2023-05-09T09:01:39.989Z,8.52
2023-05-09T09:04:08.970Z,10.55
2023-05-09T09:06:37.667Z,8.95
2023-05-09T09:09:08.481Z,9.18
2023-05-09T09:11:37.515Z,9.60
2023-05-09T09:14:09.992Z,9.05
2023-05-09T09:16:38.083Z,8.65
2023-05-09T09:19:07.506Z,8.50
2023-05-09T09:21:35.445Z,8.82
2023-05-09T09:24:04.355Z,8.07
2023-05-09T09:26:33.639Z,8.10
2023-05-09T09:29:01.621Z,8.25
2023-05-09T09:31:33.214Z,8.32
2023-05-09T09:34:01.895Z,8.38
2023-05-09T09:36:30.669Z,8.63
2023-05-09T09:39:01.439Z,8.52
2023-05-09T09:41:34.650Z,9.27
2023-05-09T09:44:08.657Z,8.48
2023-05-09T09:46:47.266Z,9.02
2023-05-09T09:49:19.837Z,8.70
2023-05-09T09:51:51.353Z,8.30
2023-05-09T09:54:19.415Z,7.18
2023-05-09T09:56:49.696Z,5.95
2023-05-09T09:59:19.001Z,6.38
2023-05-09T10:01:57.682Z,5.47
2023-05-09T10:04:28.971Z,5.45
2023-05-09T10:06:58.023Z,5.85
2023-05-09T10:09:26.942Z,5.95
2023-05-09T10:11:57.273Z,5.60
2023-05-09T10:14:29.387Z,5.43
2023-05-09T10:16:57.863Z,5.72
2023-05-09T10:19:27.464Z,6.20
2023-05-09T10:21:57.115Z,5.72
2023-05-09T10:24:30.077Z,6.43
2023-05-09T10:27:05.512Z,6.68
2023-05-09T10:29:36.757Z,6.57
2023-05-09T10:32:11.525Z,6.53
2023-05-09T10:34:41.651Z,7.15
2023-05-09T10:37:09.971Z,7.30
2023-05-09T10:39:38.506Z,7.40
2023-05-09T10:42:08.516Z,7.22
2023-05-09T10:44:36.430Z,7.00
2023-05-09T10:47:04.840Z,6.65
2023-05-09T10:49:34.345Z,6.65
2023-05-09T10:52:04.439Z,5.95
2023-05-09T10:54:33.679Z,5.90
2023-05-09T10:57:01.866Z,5.90
2023-05-09T10:59:39.227Z,6.03
2023-05-09T11:02:07.640Z,6.57
2023-05-09T11:04:35.512Z,6.65
2023-05-09T11:07:03.635Z,6.57
2023-05-09T11:09:33.861Z,6.38
2023-05-09T11:12:09.441Z,4.88
2023-05-09T11:14:43.579Z,5.43
2023-05-09T11:20:00.448Z,4.10
2023-05-09T11:22:30.781Z,3.85
2023-05-09T11:25:05.862Z,4.22
2023-05-09T11:27:40.747Z,4.53
2023-05-09T11:30:11.818Z,4.15
2023-05-09T11:32:45.749Z,5.10
2023-05-09T11:35:15.831Z,4.90
2023-05-09T11:37:49.049Z,4.80
2023-05-09T11:40:18.428Z,5.22
2023-05-09T11:42:47.668Z,5.40
2023-05-09T11:45:17.963Z,5.63
2023-05-09T11:47:46.736Z,5.85
2023-05-09T11:50:15.931Z,6.15
2023-05-09T11:52:44.074Z,6.00
2023-05-09T11:55:13.356Z,5.22
2023-05-09T11:57:43.559Z,6.80
2023-05-09T12:00:12.777Z,6.00
2023-05-09T12:02:41.980Z,5.88
2023-05-09T12:05:10.955Z,6.78
2023-05-09T12:07:39.639Z,5.88
2023-05-09T12:10:09.782Z,6.03
2023-05-09T12:12:38.486Z,5.40
2023-05-09T12:15:09.285Z,5.05
2023-05-09T12:17:37.544Z,5.25
2023-05-09T12:20:08.252Z,5.38
2023-05-09T12:22:37.503Z,5.35
2023-05-09T12:25:07.819Z,4.97
2023-05-09T12:27:36.618Z,5.45
2023-05-09T12:30:08.708Z,5.72
2023-05-09T12:32:39.151Z,5.45
2023-05-09T12:35:11.881Z,5.78
2023-05-09T12:37:39.961Z,5.70
2023-05-09T12:40:13.124Z,5.65
2023-05-09T12:42:45.119Z,5.60
2023-05-09T12:45:13.410Z,5.80
2023-05-09T12:47:42.035Z,5.35
2023-05-09T12:50:12.726Z,5.90
2023-05-09T12:52:54.612Z,5.50
2023-05-09T12:55:27.009Z,5.28
2023-05-09T12:58:04.580Z,5.32
2023-05-09T13:00:43.824Z,4.80
2023-05-09T13:03:22.371Z,4.32
2023-05-09T13:05:58.863Z,4.65
2023-05-09T13:08:27.160Z,4.28
2023-05-09T13:11:03.896Z,4.35
2023-05-09T13:13:36.149Z,4.70
2023-05-09T13:16:06.926Z,4.65
2023-05-09T13:18:36.223Z,5.03
2023-05-09T13:21:05.545Z,4.72
2023-05-09T13:23:33.296Z,4.90
2023-05-09T13:26:01.176Z,5.57
2023-05-09T13:28:29.160Z,4.68
2023-05-09T13:30:57.158Z,4.45
2023-05-09T13:33:26.621Z,4.85
2023-05-09T13:35:54.972Z,4.57
2023-05-09T13:38:24.229Z,4.25
2023-05-09T13:40:52.184Z,4.82
2023-05-09T13:43:19.986Z,4.07
2023-05-09T13:45:47.806Z,3.70
2023-05-09T13:48:15.625Z,4.13
2023-05-09T13:50:43.404Z,4.03
2023-05-09T13:53:11.300Z,3.83
2023-05-09T13:55:40.419Z,4.10
2023-05-09T13:58:08.258Z,3.70
2023-05-09T14:00:37.087Z,4.43
2023-05-09T14:03:05.191Z,4.85
2023-05-09T14:05:33.143Z,4.65
2023-05-09T14:08:02.002Z,4.38
2023-05-09T14:10:30.137Z,4.45
2023-05-09T14:12:59.604Z,4.70
2023-05-09T14:15:27.420Z,4.60
2023-05-09T14:17:55.629Z,4.63
2023-05-09T14:20:23.812Z,4.60
2023-05-09T14:22:51.828Z,5.28
2023-05-09T14:25:20.224Z,4.93
2023-05-09T14:27:48.143Z,4.85
2023-05-09T14:30:17.730Z,5.10
2023-05-09T14:32:45.843Z,5.13
2023-05-09T14:35:13.746Z,5.03
2023-05-09T14:37:41.939Z,5.13
2023-05-09T14:40:10.932Z,4.90
2023-05-09T14:42:39.091Z,5.43
2023-05-09T14:45:10.808Z,7.70
2023-05-09T14:47:41.347Z,10.10
2023-05-09T14:50:11.555Z,7.13
2023-05-09T14:52:39.738Z,9.85
2023-05-09T14:55:08.628Z,8.70
2023-05-09T14:57:36.838Z,7.53
2023-05-09T15:00:19.455Z,8.20
2023-05-09T15:02:49.590Z,7.20
2023-05-09T15:05:17.971Z,7.22
2023-05-09T15:07:45.799Z,5.43
2023-05-09T15:10:13.704Z,5.50
2023-05-09T15:12:41.852Z,5.75
2023-05-09T15:15:17.277Z,5.45
2023-05-09T15:17:45.491Z,5.30
2023-05-09T15:20:16.300Z,5.78
2023-05-09T15:22:44.983Z,5.18
2023-05-09T15:25:12.916Z,5.95
2023-05-09T15:27:40.746Z,5.82
2023-05-09T15:30:10.032Z,5.75
2023-05-09T15:32:41.019Z,5.30
2023-05-09T15:35:10.015Z,5.45
2023-05-09T15:37:39.258Z,5.60
2023-05-09T15:40:09.294Z,5.53
2023-05-09T15:42:37.308Z,5.40
2023-05-09T15:45:05.899Z,6.07
2023-05-09T15:47:33.929Z,5.97
2023-05-09T15:50:01.866Z,5.43
2023-05-09T15:52:29.992Z,5.50
2023-05-09T15:54:59.711Z,5.60
2023-05-09T15:57:29.567Z,5.50
2023-05-09T15:59:57.521Z,5.10
2023-05-09T16:02:25.417Z,4.57
2023-05-09T16:04:53.524Z,4.78
2023-05-09T16:07:22.027Z,4.82
2023-05-09T16:09:50.155Z,4.70
2023-05-09T16:12:19.526Z,5.03
2023-05-09T16:14:47.658Z,4.57
2023-05-09T16:17:15.978Z,4.93
2023-05-09T16:19:43.825Z,4.70
2023-05-09T16:22:12.361Z,4.60
2023-05-09T16:24:40.876Z,5.00
2023-05-09T16:27:08.716Z,4.72
2023-05-09T16:29:38.060Z,5.60
2023-05-09T16:32:06.587Z,5.22
2023-05-09T16:34:35.509Z,4.90
2023-05-09T16:37:03.822Z,4.93
2023-05-09T16:39:32.473Z,5.03
2023-05-09T16:42:00.467Z,4.88
2023-05-09T16:44:28.551Z,4.40
2023-05-09T16:46:57.940Z,5.47
2023-05-09T16:49:25.966Z,4.53
2023-05-09T16:51:54.033Z,4.47
2023-05-09T16:54:23.231Z,5.22
2023-05-09T16:56:51.569Z,4.90
2023-05-09T16:59:20.136Z,5.00
2023-05-09T17:01:48.649Z,5.15
2023-05-09T17:04:18.058Z,5.20
2023-05-09T17:06:45.866Z,5.40
2023-05-09T17:09:13.797Z,5.45
2023-05-09T17:11:41.853Z,5.93
2023-05-09T17:14:09.600Z,5.15
2023-05-09T17:16:38.224Z,5.38
2023-05-09T17:19:06.397Z,6.15
2023-05-09T17:21:35.738Z,5.53
2023-05-09T17:24:03.764Z,5.10
2023-05-09T17:26:31.824Z,5.07
2023-05-09T17:28:59.793Z,5.50
2023-05-09T17:31:27.677Z,5.00
2023-05-09T17:33:55.641Z,4.50
2023-05-09T17:36:23.769Z,4.55
2023-05-09T17:38:53.126Z,4.18
2023-05-09T17:41:20.926Z,3.83
2023-05-09T17:43:51.223Z,4.30
2023-05-09T17:46:19.000Z,4.40
2023-05-09T17:48:47.823Z,4.50
2023-05-09T17:51:16.959Z,4.57
2023-05-09T17:53:44.903Z,4.60
2023-05-09T17:56:14.112Z,4.57
2023-05-09T17:58:42.125Z,4.93
2023-05-09T18:01:10.021Z,4.47
2023-05-09T18:03:37.999Z,5.20
2023-05-09T18:06:05.989Z,4.90
2023-05-09T18:08:33.900Z,4.85
2023-05-09T18:11:01.758Z,4.43
2023-05-09T18:13:31.634Z,5.15
2023-05-09T18:16:00.742Z,4.90
2023-05-09T18:18:29.385Z,5.47
2023-05-09T18:20:57.320Z,5.28
2023-05-09T18:23:26.163Z,5.05
2023-05-09T18:25:54.928Z,4.93
2023-05-09T18:28:25.394Z,5.50
2023-05-09T18:30:55.471Z,5.45
2023-05-09T18:33:23.747Z,5.45
2023-05-09T18:35:51.732Z,5.70
2023-05-09T18:38:19.742Z,5.50
2023-05-09T18:40:48.255Z,5.88
2023-05-09T18:43:16.957Z,6.15
2023-05-09T18:45:48.158Z,5.85
2023-05-09T18:48:17.680Z,6.25
2023-05-09T18:50:45.991Z,6.82
2023-05-09T18:53:14.169Z,6.70
2023-05-09T18:55:42.817Z,5.82
2023-05-09T18:58:11.024Z,5.85
2023-05-09T19:00:39.531Z,6.72
2023-05-09T19:03:07.806Z,6.22
2023-05-09T19:05:37.214Z,6.47
2023-05-09T19:08:05.762Z,7.15
2023-05-09T19:10:34.333Z,7.15
2023-05-09T19:13:02.425Z,7.00
2023-05-09T19:15:30.380Z,6.07
2023-05-09T19:17:58.785Z,6.80
2023-05-09T19:20:26.721Z,7.53
2023-05-09T19:22:55.948Z,7.65
2023-05-09T19:25:24.080Z,24.23
2023-05-09T19:27:52.694Z,22.38
2023-05-09T19:30:21.479Z,14.32
2023-05-09T19:32:49.361Z,11.80
2023-05-09T19:35:17.500Z,9.38
2023-05-09T19:37:45.455Z,8.88
2023-05-09T19:40:15.230Z,9.75
2023-05-09T19:42:43.453Z,8.35
2023-05-09T19:45:12.173Z,8.57
2023-05-09T19:47:40.403Z,9.02
2023-05-09T19:50:09.268Z,8.80
2023-05-09T19:52:37.496Z,8.27
2023-05-09T19:55:07.237Z,9.73
2023-05-09T19:57:36.714Z,9.30
2023-05-09T20:04:59.667Z,9.77
2023-05-09T20:07:42.094Z,10.77
2023-05-09T20:10:12.816Z,10.45
2023-05-09T20:12:42.520Z,11.32
2023-05-09T20:15:11.857Z,11.25
2023-05-09T20:17:40.255Z,11.40
2023-05-09T20:20:10.130Z,12.00
2023-05-09T20:22:38.372Z,11.90
2023-05-09T20:25:07.113Z,11.43
2023-05-09T20:27:37.257Z,12.18
2023-05-09T20:30:08.766Z,12.38
2023-05-09T20:32:37.109Z,12.93
2023-05-09T20:35:06.371Z,12.07
2023-05-09T20:37:34.556Z,12.30
2023-05-09T20:40:02.607Z,12.70
2023-05-09T20:42:30.861Z,12.60
2023-05-09T20:44:59.278Z,13.52
2023-05-09T20:47:28.973Z,12.50
2023-05-09T20:49:58.287Z,11.73
2023-05-09T20:52:27.081Z,11.50
2023-05-09T20:54:55.033Z,11.27
2023-05-09T20:57:25.724Z,10.95
2023-05-09T20:59:56.669Z,10.05
2023-05-09T21:02:25.349Z,10.02
2023-05-09T21:04:54.938Z,9.38
2023-05-09T21:07:24.661Z,8.57
2023-05-09T21:09:54.091Z,8.32
2023-05-09T21:12:22.384Z,8.65
2023-05-09T21:14:51.144Z,8.73
2023-05-09T21:17:19.502Z,9.30
2023-05-09T21:19:51.613Z,8.98
2023-05-09T21:22:21.358Z,10.27
2023-05-09T21:24:50.783Z,9.48
2023-05-09T21:27:18.951Z,9.05
2023-05-09T21:29:49.252Z,8.90
2023-05-09T21:32:17.759Z,10.07
2023-05-09T21:34:46.154Z,10.65
2023-05-09T21:37:14.279Z,10.93
2023-05-09T21:39:48.929Z,11.55
2023-05-09T21:42:17.485Z,11.15
2023-05-09T21:44:45.890Z,11.40
2023-05-09T21:47:14.148Z,12.00
2023-05-09T21:49:42.361Z,12.23
2023-05-09T21:52:10.481Z,12.13
2023-05-09T21:54:38.733Z,13.27
2023-05-09T21:57:08.207Z,13.32
2023-05-09T21:59:36.295Z,12.73
2023-05-09T22:02:04.280Z,12.95
2023-05-09T22:04:32.146Z,13.82
2023-05-09T22:06:59.937Z,13.27
2023-05-09T22:09:28.068Z,12.95
2023-05-09T22:11:57.120Z,13.15
2023-05-09T22:14:26.384Z,14.60
2023-05-09T22:16:54.315Z,14.65
2023-05-09T22:19:22.272Z,15.15
2023-05-09T22:21:50.535Z,14.32
2023-05-09T22:24:18.383Z,15.68
2023-05-09T22:26:46.519Z,15.68
2023-05-09T22:29:16.477Z,15.85
2023-05-09T22:31:45.719Z,16.05
2023-05-09T22:34:13.558Z,17.38
2023-05-09T22:36:42.618Z,16.85
2023-05-09T22:39:11.108Z,17.20
2023-05-09T22:41:38.927Z,16.92
2023-05-09T22:44:06.928Z,17.88
2023-05-09T22:46:35.151Z,17.98
2023-05-09T22:49:05.508Z,18.60
2023-05-09T22:51:33.586Z,18.42
2023-05-09T22:54:01.502Z,18.42
2023-05-09T22:56:31.841Z,17.50
2023-05-09T22:58:59.938Z,18.95
2023-05-09T23:01:28.710Z,21.10
2023-05-09T23:03:56.650Z,19.70
2023-05-09T23:06:25.967Z,20.17
2023-05-09T23:08:53.923Z,20.30
2023-05-09T23:11:23.735Z,20.00
2023-05-09T23:13:52.239Z,21.40
2023-05-09T23:16:20.344Z,22.13
2023-05-09T23:18:48.455Z,22.75
2023-05-09T23:21:16.386Z,22.50
2023-05-09T23:23:45.715Z,23.35
2023-05-09T23:26:14.689Z,24.95
2023-05-09T23:28:42.681Z,26.80
2023-05-09T23:31:11.295Z,26.27
2023-05-09T23:33:39.681Z,26.60
2023-05-09T23:36:08.454Z,28.48
2023-05-09T23:38:36.412Z,28.05
2023-05-09T23:41:05.819Z,30.20
2023-05-09T23:43:34.417Z,30.80
2023-05-09T23:46:02.374Z,29.90
2023-05-09T23:48:30.366Z,30.20
2023-05-09T23:50:58.413Z,30.65
2023-05-09T23:53:26.250Z,31.23
2023-05-09T23:55:54.176Z,31.00
2023-05-09T23:58:23.461Z,30.80
